createdAt,value
2022-09-21T00:00:49.592Z,5.60
2022-09-21T00:03:42.719Z,5.03
2022-09-21T00:06:35.048Z,5.00
2022-09-21T00:09:26.655Z,5.77
2022-09-21T00:12:18.399Z,4.63
2022-09-21T00:15:10.517Z,4.27
2022-09-21T00:18:01.892Z,4.03
2022-09-21T00:20:54.149Z,4.33
2022-09-21T00:23:45.971Z,4.43
2022-09-21T00:26:37.228Z,4.03
2022-09-21T00:29:28.438Z,4.80
2022-09-21T00:32:20.335Z,5.07
2022-09-21T00:35:11.626Z,4.23
2022-09-21T00:38:04.381Z,4.73
2022-09-21T00:40:55.361Z,6.10
2022-09-21T00:43:47.498Z,4.37
2022-09-21T00:46:40.146Z,4.50
2022-09-21T00:49:31.994Z,7.37
2022-09-21T00:52:23.764Z,5.60
2022-09-21T00:55:18.638Z,5.63
2022-09-21T00:58:11.427Z,4.63
2022-09-21T01:01:02.588Z,4.60
2022-09-21T01:03:57.282Z,7.83
2022-09-21T01:06:49.000Z,6.33
2022-09-21T01:09:40.868Z,5.43
2022-09-21T01:12:40.913Z,4.37
2022-09-21T01:15:37.004Z,4.20
2022-09-21T01:18:31.992Z,4.43
2022-09-21T01:21:23.501Z,5.40
2022-09-21T01:24:22.560Z,4.90
2022-09-21T01:27:31.471Z,4.70
2022-09-21T01:30:24.466Z,6.17
2022-09-21T01:33:18.252Z,8.50
2022-09-21T01:36:10.320Z,4.40
2022-09-21T01:39:02.905Z,4.40
2022-09-21T01:41:55.192Z,4.17
2022-09-21T01:44:47.241Z,5.67
2022-09-21T01:47:40.536Z,5.07
2022-09-21T01:50:33.179Z,4.00
2022-09-21T01:53:27.402Z,4.87
2022-09-21T01:56:21.544Z,5.13
2022-09-21T01:59:17.821Z,5.20
2022-09-21T02:02:12.464Z,4.77
2022-09-21T02:05:06.641Z,4.50
2022-09-21T02:08:01.022Z,4.53
2022-09-21T02:10:53.284Z,7.63
2022-09-21T02:13:46.647Z,4.67
2022-09-21T02:16:39.750Z,4.33
2022-09-21T02:19:37.383Z,4.20
2022-09-21T02:22:33.312Z,4.20
2022-09-21T02:25:30.316Z,5.73
2022-09-21T02:28:27.691Z,6.73
2022-09-21T02:31:24.590Z,4.70
2022-09-21T02:34:19.042Z,4.77
2022-09-21T02:37:13.466Z,3.90
2022-09-21T02:40:10.023Z,4.60
2022-09-21T02:43:02.979Z,4.57
2022-09-21T02:45:57.522Z,5.77
2022-09-21T02:48:49.476Z,5.80
2022-09-21T02:51:43.596Z,5.30
2022-09-21T02:54:35.194Z,6.50
2022-09-21T02:57:27.994Z,5.87
2022-09-21T03:00:18.935Z,5.73
2022-09-21T03:03:18.152Z,5.73
2022-09-21T03:06:09.511Z,7.10
2022-09-21T03:09:00.791Z,5.53
2022-09-21T03:11:52.117Z,4.83
2022-09-21T03:14:44.411Z,5.87
2022-09-21T03:17:35.516Z,4.67
2022-09-21T03:20:26.722Z,5.57
2022-09-21T03:23:17.922Z,4.50
2022-09-21T03:26:09.220Z,5.07
2022-09-21T03:29:00.120Z,5.90
2022-09-21T03:31:54.090Z,5.00
2022-09-21T03:34:45.132Z,5.93
2022-09-21T03:37:41.091Z,6.07
2022-09-21T03:40:32.954Z,5.40
2022-09-21T03:43:24.409Z,5.03
2022-09-21T03:46:17.267Z,4.17
2022-09-21T03:49:09.730Z,4.00
2022-09-21T03:52:01.319Z,4.53
2022-09-21T03:54:52.281Z,4.93
2022-09-21T03:57:43.630Z,5.27
2022-09-21T04:00:34.916Z,6.00
2022-09-21T04:03:26.043Z,4.77
2022-09-21T04:06:18.609Z,5.20
2022-09-21T04:09:10.542Z,5.43
2022-09-21T04:12:01.373Z,5.43
2022-09-21T04:14:52.447Z,7.67
2022-09-21T04:17:43.631Z,4.00
2022-09-21T04:20:35.118Z,4.40
2022-09-21T04:23:27.809Z,8.73
2022-09-21T04:26:23.180Z,5.50
2022-09-21T04:29:14.689Z,5.00
2022-09-21T04:32:06.017Z,5.83
2022-09-21T04:34:57.484Z,5.27
2022-09-21T04:37:48.636Z,5.37
2022-09-21T04:40:41.167Z,4.03
2022-09-21T04:43:32.341Z,6.03
2022-09-21T04:46:23.415Z,5.37
2022-09-21T04:49:14.421Z,4.93
2022-09-21T04:52:06.063Z,5.13
2022-09-21T04:54:57.517Z,5.30
2022-09-21T04:57:49.672Z,5.97
2022-09-21T05:00:40.873Z,5.17
2022-09-21T05:03:32.244Z,5.30
2022-09-21T05:06:23.377Z,7.17
2022-09-21T05:09:32.059Z,5.83
2022-09-21T05:12:23.079Z,4.97
2022-09-21T05:15:15.621Z,5.93
2022-09-21T05:18:06.764Z,7.03
2022-09-21T05:20:57.715Z,4.30
2022-09-21T05:23:49.014Z,5.60
2022-09-21T05:26:40.238Z,5.00
2022-09-21T05:29:31.722Z,6.87
2022-09-21T05:32:26.585Z,7.13
2022-09-21T05:35:22.406Z,5.37
2022-09-21T05:38:14.871Z,5.10
2022-09-21T05:41:06.683Z,7.30
2022-09-21T05:43:58.250Z,4.90
2022-09-21T05:46:56.248Z,5.23
2022-09-21T05:49:53.496Z,7.33
2022-09-21T05:52:49.220Z,6.80
2022-09-21T05:55:45.212Z,5.27
2022-09-21T05:58:38.174Z,7.00
2022-09-21T06:01:34.648Z,4.70
2022-09-21T06:04:26.052Z,6.37
2022-09-21T06:07:18.800Z,4.37
2022-09-21T06:10:10.306Z,6.73
2022-09-21T06:13:01.226Z,4.40
2022-09-21T06:15:52.446Z,7.17
2022-09-21T06:18:43.718Z,4.27
2022-09-21T06:21:34.893Z,4.97
2022-09-21T06:24:27.552Z,5.30
2022-09-21T06:27:18.810Z,4.37
2022-09-21T06:30:10.367Z,5.43
2022-09-21T06:33:02.214Z,6.07
2022-09-21T06:35:54.146Z,5.43
2022-09-21T06:38:45.916Z,5.87
2022-09-21T06:41:38.480Z,4.67
2022-09-21T06:44:30.574Z,9.23
2022-09-21T06:47:21.391Z,6.50
2022-09-21T06:50:12.419Z,6.00
2022-09-21T06:53:04.119Z,7.33
2022-09-21T06:55:55.521Z,7.20
2022-09-21T06:58:48.577Z,6.93
2022-09-21T07:01:39.984Z,7.67
2022-09-21T07:04:31.600Z,8.20
2022-09-21T07:07:22.931Z,8.03
2022-09-21T07:10:18.499Z,11.30
2022-09-21T07:13:11.715Z,9.07
2022-09-21T07:16:07.277Z,8.80
2022-09-21T07:19:10.011Z,9.73
2022-09-21T07:22:02.597Z,7.43
2022-09-21T07:24:53.768Z,9.20
2022-09-21T07:27:45.003Z,7.20
2022-09-21T07:30:37.073Z,8.43
2022-09-21T07:33:33.885Z,7.67
2022-09-21T07:36:27.114Z,6.10
2022-09-21T07:39:18.186Z,8.47
2022-09-21T07:42:09.303Z,7.07
2022-09-21T07:45:04.370Z,6.47
2022-09-21T07:47:56.720Z,8.33
2022-09-21T07:50:49.235Z,6.30
2022-09-21T07:53:41.398Z,7.13
2022-09-21T07:56:32.584Z,5.77
2022-09-21T07:59:23.864Z,6.63
2022-09-21T08:02:15.095Z,6.07
2022-09-21T08:05:06.482Z,5.97
2022-09-21T08:07:59.224Z,5.53
2022-09-21T08:10:51.270Z,6.43
2022-09-21T08:13:42.475Z,7.43
2022-09-21T08:16:34.004Z,9.00
2022-09-21T08:19:26.668Z,8.30
2022-09-21T08:22:17.657Z,5.57
2022-09-21T08:25:10.751Z,6.10
2022-09-21T08:28:06.132Z,8.07
2022-09-21T08:31:00.506Z,5.63
2022-09-21T08:33:52.251Z,5.70
2022-09-21T08:36:44.039Z,7.63
2022-09-21T08:39:35.038Z,7.03
2022-09-21T08:42:36.703Z,7.60
2022-09-21T08:45:31.601Z,8.60
2022-09-21T08:48:29.119Z,6.73
2022-09-21T08:51:23.921Z,7.10
2022-09-21T08:54:17.986Z,9.63
2022-09-21T08:57:12.584Z,6.50
2022-09-21T09:00:09.017Z,7.87
2022-09-21T09:03:16.868Z,6.00
2022-09-21T09:06:12.179Z,7.40
2022-09-21T09:09:34.622Z,8.83
2022-09-21T09:12:34.548Z,5.97
2022-09-21T09:15:40.879Z,5.03
2022-09-21T09:18:37.312Z,7.50
2022-09-21T09:21:35.227Z,5.37
2022-09-21T09:24:32.650Z,5.33
2022-09-21T09:27:26.686Z,5.93
2022-09-21T09:30:19.056Z,6.63
2022-09-21T09:33:16.941Z,4.93
2022-09-21T09:36:10.717Z,6.37
2022-09-21T09:39:03.774Z,6.90
2022-09-21T09:42:12.287Z,8.60
2022-09-21T09:45:15.309Z,5.93
2022-09-21T09:48:10.783Z,4.10
2022-09-21T09:51:03.250Z,3.77
2022-09-21T09:53:56.026Z,4.83
2022-09-21T09:56:47.364Z,4.17
2022-09-21T09:59:40.905Z,7.53
2022-09-21T10:02:31.812Z,3.33
2022-09-21T10:05:24.816Z,4.77
2022-09-21T10:08:29.740Z,2.87
2022-09-21T10:11:21.463Z,4.00
2022-09-21T10:14:16.057Z,5.00
2022-09-21T10:17:08.724Z,5.30
2022-09-21T10:20:00.662Z,3.13
2022-09-21T10:22:56.022Z,1.80
2022-09-21T10:25:54.988Z,3.20
2022-09-21T10:28:56.517Z,4.20
2022-09-21T10:31:57.736Z,3.07
2022-09-21T10:35:03.361Z,2.00
2022-09-21T10:38:09.939Z,3.53
2022-09-21T10:41:02.266Z,2.60
2022-09-21T10:43:54.716Z,1.83
2022-09-21T10:46:46.382Z,1.90
2022-09-21T10:49:37.596Z,2.23
2022-09-21T10:52:34.330Z,1.43
2022-09-21T10:55:25.793Z,4.03
2022-09-21T10:58:18.423Z,1.53
2022-09-21T11:01:13.646Z,1.97
2022-09-21T11:04:06.916Z,1.20
2022-09-21T11:07:01.897Z,1.10
2022-09-21T11:09:55.524Z,3.47
2022-09-21T11:12:53.074Z,2.90
2022-09-21T11:15:48.170Z,3.53
2022-09-21T11:18:44.788Z,1.87
2022-09-21T11:21:41.830Z,2.60
2022-09-21T11:24:38.065Z,2.10
2022-09-21T11:27:32.181Z,1.73
2022-09-21T11:30:24.494Z,1.53
2022-09-21T11:33:23.623Z,1.60
2022-09-21T11:36:17.247Z,2.20
2022-09-21T11:39:15.784Z,1.63
2022-09-21T11:42:14.344Z,2.90
2022-09-21T11:45:09.848Z,3.80
2022-09-21T11:48:07.645Z,1.40
2022-09-21T11:51:07.433Z,3.13
2022-09-21T11:54:13.337Z,2.03
2022-09-21T11:57:08.338Z,1.77
2022-09-21T12:00:11.543Z,3.47
2022-09-21T12:03:23.279Z,3.60
2022-09-21T12:06:32.789Z,3.63
2022-09-21T12:09:50.658Z,4.60
2022-09-21T12:12:48.181Z,1.40
2022-09-21T12:15:42.645Z,1.70
2022-09-21T12:18:36.853Z,1.30
2022-09-21T12:21:30.054Z,3.70
2022-09-21T12:24:22.965Z,1.87
2022-09-21T12:27:18.814Z,3.03
2022-09-21T12:30:14.328Z,1.93
2022-09-21T12:33:07.618Z,2.40
2022-09-21T12:36:03.234Z,4.17
2022-09-21T12:38:57.074Z,2.57
2022-09-21T12:41:52.343Z,2.30
2022-09-21T12:44:52.963Z,2.30
2022-09-21T12:47:48.566Z,1.63
2022-09-21T12:50:41.618Z,1.63
2022-09-21T12:53:35.022Z,2.33
2022-09-21T12:56:32.189Z,2.30
2022-09-21T12:59:31.253Z,1.77
2022-09-21T13:02:25.281Z,1.53
2022-09-21T13:05:22.255Z,1.43
2022-09-21T13:08:14.332Z,1.20
2022-09-21T13:11:07.877Z,1.10
2022-09-21T13:14:00.487Z,2.03
2022-09-21T13:16:57.607Z,1.47
2022-09-21T13:19:56.951Z,1.53
2022-09-21T13:22:50.471Z,1.63
2022-09-21T13:25:41.821Z,2.93
2022-09-21T13:28:57.472Z,1.40
2022-09-21T13:31:57.971Z,2.17
2022-09-21T13:34:50.999Z,2.30
2022-09-21T13:37:42.495Z,5.03
2022-09-21T13:40:36.101Z,1.90
2022-09-21T13:43:58.554Z,2.17
2022-09-21T13:46:56.473Z,2.90
2022-09-21T13:49:54.047Z,1.70
2022-09-21T13:52:50.688Z,3.87
2022-09-21T13:55:50.300Z,1.07
2022-09-21T13:58:43.844Z,1.13
2022-09-21T14:01:52.472Z,1.37
2022-09-21T14:04:48.834Z,2.73
2022-09-21T14:10:38.486Z,1.83
2022-09-21T14:13:33.770Z,1.40
2022-09-21T14:16:44.640Z,1.63
2022-09-21T14:20:09.473Z,3.43
2022-09-21T14:23:13.161Z,1.20
2022-09-21T14:26:21.367Z,3.30
2022-09-21T14:29:16.958Z,1.30
2022-09-21T14:32:17.089Z,2.03
2022-09-21T14:35:11.438Z,1.60
2022-09-21T14:38:05.400Z,1.30
2022-09-21T14:40:58.482Z,2.87
2022-09-21T14:43:52.174Z,1.80
2022-09-21T14:47:02.116Z,2.20
2022-09-21T14:50:07.041Z,1.20
2022-09-21T14:53:14.206Z,1.70
2022-09-21T14:56:14.754Z,1.00
2022-09-21T14:59:21.122Z,2.20
2022-09-21T15:02:18.752Z,1.30
2022-09-21T15:05:21.518Z,1.37
2022-09-21T15:08:40.056Z,1.20
2022-09-21T15:11:32.446Z,1.73
2022-09-21T15:14:28.406Z,1.33
2022-09-21T15:17:24.132Z,2.33
2022-09-21T15:20:20.643Z,1.13
2022-09-21T15:23:18.562Z,2.43
2022-09-21T15:26:10.886Z,1.20
2022-09-21T15:29:09.649Z,1.30
2022-09-21T15:32:02.112Z,1.13
2022-09-21T15:35:02.161Z,1.27
2022-09-21T15:37:53.833Z,1.50
2022-09-21T15:40:47.980Z,1.70
2022-09-21T15:43:41.293Z,1.50
2022-09-21T15:46:32.962Z,1.43
2022-09-21T15:49:25.036Z,1.40
2022-09-21T15:52:22.930Z,1.40
2022-09-21T15:55:21.357Z,1.20
2022-09-21T15:58:17.965Z,1.33
2022-09-21T16:01:11.271Z,1.30
2022-09-21T16:04:03.971Z,1.50
2022-09-21T16:07:00.655Z,1.33
2022-09-21T16:09:54.459Z,3.50
2022-09-21T16:12:45.894Z,4.00
2022-09-21T16:15:36.222Z,6.30
2022-09-21T16:18:35.779Z,2.40
2022-09-21T16:21:28.592Z,2.80
2022-09-21T16:24:21.227Z,4.40
2022-09-21T16:27:19.511Z,1.60
2022-09-21T16:30:33.937Z,2.23
2022-09-21T16:33:42.322Z,1.87
2022-09-21T16:36:38.128Z,4.77
2022-09-21T16:39:29.473Z,1.90
2022-09-21T16:42:22.356Z,3.97
2022-09-21T16:45:17.973Z,2.40
2022-09-21T16:48:10.427Z,2.20
2022-09-21T16:51:01.809Z,1.50
2022-09-21T16:53:53.053Z,3.17
2022-09-21T16:56:44.208Z,3.90
2022-09-21T16:59:36.699Z,4.27
2022-09-21T17:02:27.936Z,3.93
2022-09-21T17:05:20.676Z,3.23
2022-09-21T17:08:12.390Z,2.90
2022-09-21T17:11:04.558Z,3.40
2022-09-21T17:13:57.975Z,3.47
2022-09-21T17:16:52.042Z,3.27
2022-09-21T17:19:43.176Z,6.37
2022-09-21T17:22:36.254Z,4.30
2022-09-21T17:25:28.219Z,3.70
2022-09-21T17:28:25.832Z,2.83
2022-09-21T17:31:17.533Z,5.40
2022-09-21T17:34:15.782Z,2.83
2022-09-21T17:37:07.352Z,3.67
2022-09-21T17:39:59.243Z,3.00
2022-09-21T17:42:50.750Z,4.73
2022-09-21T17:45:43.605Z,4.13
2022-09-21T17:48:34.827Z,3.67
2022-09-21T17:51:44.878Z,5.73
2022-09-21T17:54:36.267Z,3.00
2022-09-21T17:57:32.448Z,4.77
2022-09-21T18:00:25.094Z,2.97
2022-09-21T18:03:20.446Z,3.13
2022-09-21T18:06:12.081Z,4.27
2022-09-21T18:09:05.001Z,5.90
2022-09-21T18:12:02.431Z,4.33
2022-09-21T18:14:57.153Z,4.10
2022-09-21T18:17:58.186Z,5.23
2022-09-21T18:20:56.883Z,4.27
2022-09-21T18:23:56.203Z,5.33
2022-09-21T18:26:50.402Z,3.50
2022-09-21T18:29:42.205Z,5.67
2022-09-21T18:32:41.138Z,5.27
2022-09-21T18:35:48.481Z,5.93
2022-09-21T18:38:44.190Z,3.93
2022-09-21T18:41:37.456Z,7.13
2022-09-21T18:44:32.012Z,4.70
2022-09-21T18:47:27.632Z,4.63
2022-09-21T18:50:22.836Z,6.60
2022-09-21T18:53:22.374Z,5.67
2022-09-21T18:56:13.766Z,5.00
2022-09-21T18:59:06.439Z,7.03
2022-09-21T19:02:00.086Z,5.77
2022-09-21T19:04:51.406Z,7.17
2022-09-21T19:07:48.685Z,5.73
2022-09-21T19:10:43.962Z,5.30
2022-09-21T19:13:39.987Z,5.13
2022-09-21T19:16:33.451Z,7.33
2022-09-21T19:19:30.752Z,7.23
2022-09-21T19:22:25.456Z,6.60
2022-09-21T19:25:21.752Z,8.63
2022-09-21T19:28:20.421Z,6.80
2022-09-21T19:31:12.517Z,6.13
2022-09-21T19:34:10.967Z,7.10
2022-09-21T19:37:07.577Z,5.03
2022-09-21T19:39:59.193Z,6.20
2022-09-21T19:43:02.341Z,7.43
2022-09-21T19:46:04.406Z,5.40
2022-09-21T19:49:01.516Z,5.73
2022-09-21T19:51:53.369Z,4.47
2022-09-21T19:55:03.798Z,5.30
2022-09-21T19:58:09.563Z,5.03
2022-09-21T20:01:00.715Z,11.33
2022-09-21T20:03:53.740Z,6.97
2022-09-21T20:06:48.955Z,7.53
2022-09-21T20:09:42.551Z,6.47
2022-09-21T20:12:37.096Z,6.67
2022-09-21T20:15:31.312Z,6.60
2022-09-21T20:18:27.259Z,7.10
2022-09-21T20:21:19.252Z,7.13
2022-09-21T20:24:13.945Z,5.23
2022-09-21T20:27:11.447Z,5.33
2022-09-21T20:30:05.021Z,5.50
2022-09-21T20:32:57.926Z,4.93
2022-09-21T20:35:49.701Z,5.90
2022-09-21T20:38:40.899Z,5.87
2022-09-21T20:41:32.126Z,6.77
2022-09-21T20:44:23.404Z,5.93
2022-09-21T20:47:15.943Z,5.47
2022-09-21T20:50:10.071Z,6.83
2022-09-21T20:53:01.159Z,6.67
2022-09-21T20:55:56.243Z,4.73
2022-09-21T20:58:47.291Z,5.43
2022-09-21T21:01:38.631Z,4.73
2022-09-21T21:04:32.492Z,4.43
2022-09-21T21:07:27.093Z,4.73
2022-09-21T21:10:21.843Z,5.23
2022-09-21T21:13:13.052Z,5.97
2022-09-21T21:16:08.287Z,4.93
2022-09-21T21:19:02.341Z,5.20
2022-09-21T21:21:55.018Z,8.63
2022-09-21T21:24:46.252Z,6.10
2022-09-21T21:27:37.465Z,5.37
2022-09-21T21:30:28.701Z,4.70
2022-09-21T21:33:19.789Z,4.33
2022-09-21T21:36:14.871Z,4.50
2022-09-21T21:39:07.641Z,6.10
2022-09-21T21:42:00.176Z,5.80
2022-09-21T21:44:51.586Z,6.13
2022-09-21T21:47:42.689Z,5.60
2022-09-21T21:50:34.205Z,5.23
2022-09-21T21:53:25.092Z,7.23
2022-09-21T21:56:20.101Z,4.87
2022-09-21T21:59:16.825Z,5.10
2022-09-21T22:02:08.919Z,8.33
2022-09-21T22:05:00.259Z,4.40
2022-09-21T22:07:51.454Z,7.00
2022-09-21T22:10:49.279Z,5.23
2022-09-21T22:13:42.685Z,4.73
2022-09-21T22:16:34.810Z,5.17
2022-09-21T22:19:26.200Z,4.40
2022-09-21T22:22:17.416Z,6.43
2022-09-21T22:25:09.350Z,5.33
2022-09-21T22:28:00.967Z,4.57
2022-09-21T22:30:53.480Z,4.10
2022-09-21T22:33:46.770Z,4.50
2022-09-21T22:36:38.552Z,3.77
2022-09-21T22:39:29.830Z,5.87
2022-09-21T22:42:21.015Z,5.80
2022-09-21T22:45:12.208Z,5.57
2022-09-21T22:48:04.939Z,4.00
2022-09-21T22:50:56.126Z,7.27
